Time;durP1;ratioP1;P1;durP2;ratioP2;P2;SDS_P1;SDS_P2;PMS_P1;PMS_P2;Temp;Humidity;BMP_temperature;BMP_pressure;BME280_temperature;BME280_humidity;BME280_pressure;Samples;Min_cycle;Max_cycle;Signal;HPM_P1;HPM_P2
2022/05/04 00:00:38;;;;;;;;;;;;;;;9.04;77.04;99015.48;1649389;85;20159;-76
2022/05/04 00:03:04;;;;;;;;;;;;;;;8.99;77.20;99017.80;1649172;85;20098;-77
2022/05/04 00:05:31;;;;;;;;;;;;;;;8.94;77.47;99024.80;1648262;85;21801;-76
2022/05/04 00:07:57;;;;;;;;;;;;;;;8.89;77.83;99016.73;1637712;84;20134;-76
2022/05/04 00:10:24;;;;;;;;;;;;;;;8.84;78.19;99023.71;1631366;86;20151;-76
2022/05/04 00:12:50;;;;;;;;;;;;;;;8.77;78.49;99020.63;1628091;85;20226;-75
2022/05/04 00:15:17;;;;;;;;;;;;;;;8.69;78.92;99016.73;1630853;86;20471;-76
2022/05/04 00:17:43;;;;;;;;;;;;;;;8.63;79.23;99013.92;1634790;86;21222;-76
2022/05/04 00:20:10;;;;;;;;;;;;;;;8.56;79.40;99009.46;1645760;85;20138;-76
2022/05/04 00:22:36;;;;;;;;;;;;;;;8.49;79.70;99008.55;1637398;85;20465;-77
2022/05/04 00:25:03;;;;;;;;;;;;;;;8.43;80.28;99014.47;1638837;85;20142;-76
2022/05/04 00:27:31;;;;;;;;;;;;;;;8.37;80.88;99020.63;1642542;85;20153;-76
2022/05/04 00:29:58;;;;;;;;;;;;;;;8.35;81.43;99024.80;1638300;84;21112;-76
2022/05/04 00:32:24;;;;;;;;;;;;;;;8.36;81.31;99026.41;1677344;83;20128;-76
2022/05/04 00:34:50;;;;;;;;;;;;;;;8.40;81.25;99034.23;1653368;85;20445;-77
2022/05/04 00:37:16;;;;;;;;;;;;;;;8.37;81.03;99035.67;1633786;86;20126;-77
2022/05/04 00:39:44;;;;;;;;;;;;;;;8.32;81.42;99033.04;1628051;86;20122;-77
2022/05/04 00:42:13;;;;;;;;;;;;;;;8.33;81.86;99036.05;1639436;86;20757;-77
2022/05/04 00:44:39;;;;;;;;;;;;;;;8.39;81.89;99030.70;1647582;85;20145;-77
2022/05/04 00:47:06;;;;;;;;;;;;;;;8.48;81.86;99034.28;1643633;84;20102;-76
2022/05/04 00:49:33;;;;;;;;;;;;;;;8.47;81.82;99038.14;1650869;85;20121;-76
2022/05/04 00:52:01;;;;;;;;;;;;;;;8.42;82.17;99035.54;1645952;85;20082;-76
2022/05/04 00:54:28;;;;;;;;;;;;;;;8.34;82.57;99039.03;1644838;85;21877;-76
2022/05/04 00:56:54;;;;;;;;;;;;;;;8.25;82.86;99042.24;1631351;86;20090;-76
2022/05/04 00:59:21;;;;;;;;;;;;;;;8.15;83.09;99040.58;1654987;84;20108;-76
2022/05/04 01:01:47;;;;;;;;;;;;;;;8.12;83.32;99045.86;1632589;86;20456;-76
2022/05/04 01:04:14;;;;;;;;;;;;;;;8.08;83.33;99047.07;1642666;84;20156;-76
2022/05/04 01:06:40;;;;;;;;;;;;;;;8.04;83.51;99047.44;1632902;85;21150;-76
2022/05/04 01:09:07;;;;;;;;;;;;;;;8.01;83.51;99043.96;1653206;85;20241;-76
2022/05/04 01:11:33;;;;;;;;;;;;;;;8.04;83.22;99043.91;1631376;86;20177;-76
2022/05/04 01:14:13;;;;;;;;;;;;;;;8.07;82.90;99046.02;1650997;85;20107;-76
2022/05/04 01:16:43;;;;;;;;;;;;;;;8.06;82.76;99049.86;1650010;84;20130;-76
2022/05/04 01:19:10;;;;;;;;;;;;;;;8.04;82.87;99039.23;1635456;86;21795;-76
2022/05/04 01:21:36;;;;;;;;;;;;;;;8.01;82.73;99041.79;1644500;85;20106;-76
2022/05/04 01:24:05;;;;;;;;;;;;;;;7.99;82.67;99042.09;1654381;84;20113;-76
2022/05/04 01:26:32;;;;;;;;;;;;;;;7.95;82.59;99044.64;1641569;86;20138;-76
2022/05/04 01:29:00;;;;;;;;;;;;;;;7.88;82.50;99047.00;1651363;85;20472;-76
2022/05/04 01:31:27;;;;;;;;;;;;;;;7.87;81.91;99047.31;1650743;86;21935;-76
2022/05/04 01:33:53;;;;;;;;;;;;;;;7.92;81.09;99052.09;1649231;86;20126;-76
2022/05/04 01:36:20;;;;;;;;;;;;;;;8.02;80.11;99052.41;1639402;85;33548;-76
2022/05/04 01:38:47;;;;;;;;;;;;;;;8.12;79.37;99054.87;1635112;84;20090;-76
2022/05/04 01:43:58;;;;;;;;;;;;;;;8.17;78.40;99056.66;1668224;84;21226;-77
2022/05/04 01:46:25;;;;;;;;;;;;;;;8.19;77.65;99066.73;1645870;85;20126;-77
2022/05/04 01:48:52;;;;;;;;;;;;;;;8.22;77.02;99066.92;1650694;84;20151;-77
2022/05/04 01:51:19;;;;;;;;;;;;;;;8.24;76.56;99077.55;1651482;85;20214;-77
2022/05/04 01:53:45;;;;;;;;;;;;;;;8.25;76.14;99075.06;1656574;86;20118;-77
2022/05/04 01:56:12;;;;;;;;;;;;;;;8.23;75.51;99069.09;1656487;86;21558;-77
2022/05/04 01:58:38;;;;;;;;;;;;;;;8.22;75.22;99069.66;1649742;84;20090;-77
2022/05/04 02:01:04;;;;;;;;;;;;;;;8.25;74.09;99067.66;1665105;86;20146;-77
2022/05/04 02:03:31;;;;;;;;;;;;;;;8.35;73.78;99076.77;1648737;85;20098;-77
2022/05/04 02:05:57;;;;;;;;;;;;;;;8.38;73.11;99074.21;1639940;84;20107;-77
2022/05/04 02:08:24;;;;;;;;;;;;;;;8.41;72.48;99069.48;1634877;86;21106;-77
2022/05/04 02:10:51;;;;;;;;;;;;;;;8.43;72.26;99078.19;1639630;84;20122;-78
2022/05/04 02:13:17;;;;;;;;;;;;;;;8.41;71.85;99077.69;1665156;82;20189;-77
2022/05/04 02:15:43;;;;;;;;;;;;;;;8.37;71.81;99082.73;1639138;85;20167;-77
2022/05/04 02:18:09;;;;;;;;;;;;;;;8.29;71.85;99082.33;1630452;85;20213;-77
2022/05/04 02:20:36;;;;;;;;;;;;;;;8.24;71.96;99082.45;1638253;85;21573;-76
2022/05/04 02:23:03;;;;;;;;;;;;;;;8.17;72.12;99089.48;1659292;84;20565;-76
2022/05/04 02:25:29;;;;;;;;;;;;;;;8.12;72.40;99092.33;1684039;84;20153;-76
2022/05/04 02:27:55;;;;;;;;;;;;;;;8.05;72.32;99094.16;1648819;84;20102;-76
2022/05/04 02:30:22;;;;;;;;;;;;;;;8.01;72.86;99097.27;1634431;86;20167;-78
2022/05/04 02:32:48;;;;;;;;;;;;;;;7.97;72.59;99099.55;1639688;86;21113;-73
2022/05/04 02:38:00;;;;;;;;;;;;;;;7.87;72.75;99106.88;1631445;86;20122;-75
2022/05/04 02:40:27;;;;;;;;;;;;;;;7.80;73.42;99109.22;1639001;86;20130;-75
2022/05/04 02:42:54;;;;;;;;;;;;;;;7.75;73.41;99115.36;1652114;86;20118;-73
2022/05/04 02:45:20;;;;;;;;;;;;;;;7.68;73.44;99121.80;1646015;86;21797;-75
2022/05/04 02:47:49;;;;;;;;;;;;;;;7.61;73.67;99121.66;1647086;84;20130;-75
2022/05/04 02:50:16;;;;;;;;;;;;;;;7.59;73.92;99117.05;1643127;84;20149;-80
2022/05/04 02:52:43;;;;;;;;;;;;;;;7.55;74.32;99117.97;1648913;84;20169;-84
2022/05/04 02:55:09;;;;;;;;;;;;;;;7.49;74.71;99124.13;1637858;85;20138;-79
2022/05/04 02:57:37;;;;;;;;;;;;;;;7.45;74.84;99128.59;1643166;84;21185;-84
2022/05/04 03:00:07;;;;;;;;;;;;;;;7.39;75.19;99126.27;1673782;83;20217;-84
2022/05/04 03:02:42;;;;;;;;;;;;;;;7.33;75.15;99134.30;1643113;85;20215;-77
2022/05/04 03:05:16;;;;;;;;;;;;;;;7.35;75.12;99130.72;1693428;84;20115;-75
2022/05/04 03:07:43;;;;;;;;;;;;;;;7.32;75.35;99136.23;1694374;84;20146;-75
2022/05/04 03:10:13;;;;;;;;;;;;;;;7.32;75.19;99130.77;1692364;82;21162;-78
2022/05/04 03:12:42;;;;;;;;;;;;;;;7.36;75.27;99132.33;1654904;85;20151;-74
2022/05/04 03:15:09;;;;;;;;;;;;;;;7.41;74.92;99133.59;1605842;86;20401;-79
2022/05/04 03:17:35;;;;;;;;;;;;;;;7.47;74.72;99137.84;1627781;86;20890;-76
2022/05/04 03:20:02;;;;;;;;;;;;;;;7.53;74.06;99145.59;1607773;86;20112;-71
2022/05/04 03:22:32;;;;;;;;;;;;;;;7.59;74.02;99146.30;1628143;86;21190;-79
2022/05/04 03:24:59;;;;;;;;;;;;;;;7.62;73.92;99154.69;1628274;86;20155;-73
2022/05/04 03:27:27;;;;;;;;;;;;;;;7.64;73.78;99158.48;1605315;86;20200;-80
2022/05/04 03:29:55;;;;;;;;;;;;;;;7.69;73.39;99161.11;1637214;86;20138;-76
2022/05/04 03:32:24;;;;;;;;;;;;;;;7.76;72.82;99164.23;1630910;86;20159;-77
2022/05/04 03:34:58;;;;;;;;;;;;;;;7.81;72.45;99169.59;1627998;85;21690;-75
2022/05/04 03:37:24;;;;;;;;;;;;;;;7.87;72.28;99175.20;1630620;86;20173;-73
2022/05/04 03:39:55;;;;;;;;;;;;;;;7.94;72.18;99174.22;1625495;87;20147;-76
2022/05/04 03:42:25;;;;;;;;;;;;;;;8.05;71.71;99179.46;1597861;88;20149;-74
2022/05/04 03:44:59;;;;;;;;;;;;;;;8.12;71.29;99178.45;1637519;86;20180;-75
2022/05/04 03:47:23;;;;;;;;;;;;;;;8.20;70.52;99181.82;1611148;87;21177;-78
2022/05/04 03:49:51;;;;;;;;;;;;;;;8.29;70.54;99190.91;1604374;86;20178;-84
2022/05/04 03:52:17;;;;;;;;;;;;;;;8.39;70.07;99187.16;1608731;87;20280;-73
2022/05/04 03:54:52;;;;;;;;;;;;;;;8.47;70.01;99186.42;1611866;86;20153;-72
2022/05/04 03:57:15;;;;;;;;;;;;;;;8.55;68.97;99196.06;1621502;86;20134;-72
2022/05/04 03:59:47;;;;;;;;;;;;;;;8.60;68.53;99197.87;1591536;87;21555;-71
2022/05/04 04:02:17;;;;;;;;;;;;;;;8.64;68.51;99203.53;1604804;87;20139;-72
2022/05/04 04:04:44;;;;;;;;;;;;;;;8.64;68.20;99207.07;1638071;86;20164;-72
2022/05/04 04:07:13;;;;;;;;;;;;;;;8.67;68.13;99211.08;1646200;86;20110;-71
2022/05/04 04:09:45;;;;;;;;;;;;;;;8.73;68.31;99211.20;1615958;86;20444;-76
2022/05/04 04:12:16;;;;;;;;;;;;;;;8.80;68.79;99206.11;1634921;86;20432;-74
2022/05/04 04:14:46;;;;;;;;;;;;;;;8.89;68.10;99215.19;1648643;85;20200;-72
2022/05/04 04:17:16;;;;;;;;;;;;;;;8.98;68.09;99217.41;1650650;84;20115;-71
2022/05/04 04:19:42;;;;;;;;;;;;;;;9.06;67.49;99222.14;1644325;83;20118;-73
2022/05/04 04:22:12;;;;;;;;;;;;;;;9.13;66.95;99211.55;1639090;84;20183;-74
2022/05/04 04:24:40;;;;;;;;;;;;;;;9.21;66.40;99219.00;1638998;85;21169;-71
2022/05/04 04:27:06;;;;;;;;;;;;;;;9.27;66.29;99220.45;1637246;85;20468;-77
2022/05/04 04:29:36;;;;;;;;;;;;;;;9.35;66.44;99216.70;1673962;84;20130;-76
2022/05/04 04:32:04;;;;;;;;;;;;;;;9.42;66.42;99217.86;1648584;83;20464;-71
2022/05/04 04:34:36;;;;;;;;;;;;;;;9.52;66.57;99220.89;1646489;84;20114;-71
2022/05/04 04:37:00;;;;;;;;;;;;;;;9.60;65.37;99218.74;1665243;83;21318;-75
2022/05/04 04:39:27;;;;;;;;;;;;;;;9.68;65.38;99222.08;1690945;83;20425;-78
2022/05/04 04:41:53;;;;;;;;;;;;;;;9.76;66.34;99227.34;1664696;85;20125;-78
2022/05/04 04:44:29;;;;;;;;;;;;;;;9.84;65.93;99230.08;1663317;85;20202;-76
2022/05/04 04:47:03;;;;;;;;;;;;;;;9.92;65.81;99227.92;1664826;85;20088;-77
2022/05/04 04:49:36;;;;;;;;;;;;;;;10.00;64.93;99237.86;1651213;84;21358;-75
2022/05/04 04:52:07;;;;;;;;;;;;;;;10.08;65.18;99232.96;1619526;86;20107;-76
2022/05/04 04:54:34;;;;;;;;;;;;;;;10.14;64.24;99242.66;1663974;84;20431;-74
2022/05/04 04:57:05;;;;;;;;;;;;;;;10.18;64.89;99243.63;1635435;85;20186;-76
2022/05/04 04:59:32;;;;;;;;;;;;;;;10.27;64.93;99241.74;1630512;86;20115;-72
2022/05/04 05:01:59;;;;;;;;;;;;;;;10.34;64.20;99242.08;1639041;84;21155;-76
2022/05/04 05:04:30;;;;;;;;;;;;;;;10.41;64.19;99240.20;1644977;85;20153;-74
2022/05/04 05:06:58;;;;;;;;;;;;;;;10.49;63.52;99241.58;1636777;84;20229;-71
2022/05/04 05:09:26;;;;;;;;;;;;;;;10.55;63.63;99245.77;1656393;85;20115;-72
2022/05/04 05:11:54;;;;;;;;;;;;;;;10.61;63.42;99240.94;1658378;85;20467;-71
2022/05/04 05:17:10;;;;;;;;;;;;;;;10.82;64.25;99244.64;1674835;84;20193;-76
2022/05/04 05:19:38;;;;;;;;;;;;;;;10.97;63.56;99245.27;1658961;85;20099;-76
2022/05/04 05:22:11;;;;;;;;;;;;;;;11.07;63.51;99241.59;1656111;84;20172;-75
2022/05/04 05:24:36;;;;;;;;;;;;;;;11.15;61.85;99239.96;1668180;85;20175;-82
2022/05/04 05:27:12;;;;;;;;;;;;;;;11.18;61.51;99235.99;1643928;83;20182;-82
2022/05/04 05:29:38;;;;;;;;;;;;;;;11.26;61.83;99235.73;1658660;85;20157;-76
2022/05/04 05:32:15;;;;;;;;;;;;;;;11.36;62.66;99240.07;1623558;86;20158;-81
2022/05/04 05:34:43;;;;;;;;;;;;;;;11.48;62.38;99241.00;1625812;85;20090;-77
2022/05/04 05:37:14;;;;;;;;;;;;;;;11.59;61.02;99241.41;1654165;85;20426;-79
2022/05/04 05:39:46;;;;;;;;;;;;;;;11.71;61.99;99246.22;1659691;85;21788;-72
2022/05/04 05:42:14;;;;;;;;;;;;;;;11.84;61.50;99240.53;1625801;85;20158;-76
2022/05/04 05:44:41;;;;;;;;;;;;;;;11.97;60.29;99244.19;1653753;85;20443;-76
2022/05/04 05:47:09;;;;;;;;;;;;;;;12.09;60.21;99243.47;1656829;85;20196;-72
2022/05/04 05:49:36;;;;;;;;;;;;;;;12.17;58.01;99248.89;1655056;85;20177;-70
2022/05/04 05:52:07;;;;;;;;;;;;;;;12.21;58.35;99253.16;1635719;85;21166;-68
2022/05/04 05:54:37;;;;;;;;;;;;;;;12.28;56.60;99259.52;1652135;86;20212;-70
2022/05/04 05:57:07;;;;;;;;;;;;;;;12.29;56.99;99261.13;1636157;86;20214;-70
2022/05/04 05:59:38;;;;;;;;;;;;;;;12.34;56.67;99269.19;1630586;85;20151;-68
2022/05/04 06:02:06;;;;;;;;;;;;;;;12.43;57.66;99262.48;1640439;84;20203;-74
2022/05/04 06:04:37;;;;;;;;;;;;;;;12.59;56.54;99263.27;1648446;84;21270;-75
2022/05/04 06:07:05;;;;;;;;;;;;;;;12.70;56.76;99263.10;1652646;84;20190;-73
2022/05/04 06:09:32;;;;;;;;;;;;;;;12.81;56.12;99261.52;1653092;84;20213;-76
2022/05/04 06:12:04;;;;;;;;;;;;;;;12.93;57.61;99265.71;1609108;85;20204;-74
2022/05/04 06:14:31;;;;;;;;;;;;;;;13.04;56.31;99256.45;1644733;84;20223;-79
2022/05/04 06:17:04;;;;;;;;;;;;;;;13.12;55.14;99266.59;1652391;84;21224;-75
2022/05/04 06:19:31;;;;;;;;;;;;;;;13.15;54.59;99265.34;1639902;85;20216;-79
2022/05/04 06:21:58;;;;;;;;;;;;;;;13.23;53.82;99268.38;1663499;86;20476;-75
2022/05/04 06:24:27;;;;;;;;;;;;;;;13.28;52.54;99257.95;1660630;85;20148;-76
2022/05/04 06:26:58;;;;;;;;;;;;;;;13.26;52.93;99267.70;1629880;86;21349;-76
2022/05/04 06:34:06;;;;;;;;;;;;;;;13.30;53.48;99265.84;1610365;86;21136;-79
2022/05/04 06:34:45;;;;;;;;;;;;;;;13.53;53.57;99266.48;1614998;85;20178;-74
2022/05/04 06:37:11;;;;;;;;;;;;;;;13.68;53.90;99271.11;1655072;85;20191;-73
2022/05/04 06:39:41;;;;;;;;;;;;;;;13.87;54.78;99266.62;1627839;85;20147;-72
2022/05/04 06:42:16;;;;;;;;;;;;;;;14.02;52.47;99260.98;1638305;84;21798;-72
2022/05/04 06:44:41;;;;;;;;;;;;;;;14.12;52.19;99269.37;1638225;84;20177;-75
2022/05/04 06:47:15;;;;;;;;;;;;;;;14.26;53.25;99267.65;1655064;85;20187;-74
2022/05/04 06:49:47;;;;;;;;;;;;;;;14.39;50.89;99269.25;1656740;85;20153;-77
2022/05/04 06:52:10;;;;;;;;;;;;;;;14.49;51.85;99271.53;1622990;86;20155;-77
2022/05/04 06:54:39;;;;;;;;;;;;;;;14.62;51.71;99273.69;1652544;85;21057;-74
2022/05/04 06:57:11;;;;;;;;;;;;;;;14.71;49.27;99271.60;1626735;85;20481;-84
2022/05/04 06:59:40;;;;;;;;;;;;;;;14.72;49.04;99278.73;1658905;85;20147;-78
2022/05/04 07:02:10;;;;;;;;;;;;;;;14.72;49.90;99269.06;1617595;86;20593;-78
2022/05/04 07:04:38;;;;;;;;;;;;;;;14.82;50.41;99275.48;1608601;87;20480;-79
2022/05/04 07:07:10;;;;;;;;;;;;;;;14.96;48.94;99280.05;1626415;87;21291;-76
2022/05/04 07:09:43;;;;;;;;;;;;;;;15.07;47.14;99274.79;1607932;87;20170;-73
2022/05/04 07:12:12;;;;;;;;;;;;;;;15.09;46.10;99285.72;1669343;84;20444;-73
2022/05/04 07:14:41;;;;;;;;;;;;;;;15.11;46.41;99283.98;1642054;85;20139;-74
2022/05/04 07:17:10;;;;;;;;;;;;;;;15.18;47.87;99292.48;1666250;85;20184;-75
2022/05/04 07:19:39;;;;;;;;;;;;;;;15.32;48.28;99295.65;1640432;85;20184;-71
2022/05/04 07:22:11;;;;;;;;;;;;;;;15.49;47.94;99295.33;1665759;86;20140;-66
2022/05/04 07:24:41;;;;;;;;;;;;;;;15.67;46.41;99302.72;1668289;85;20436;-67
2022/05/04 07:27:11;;;;;;;;;;;;;;;15.79;44.23;99297.11;1661688;86;20142;-70
2022/05/04 07:29:44;;;;;;;;;;;;;;;15.82;43.07;99296.40;1626009;86;20174;-68
2022/05/04 07:32:14;;;;;;;;;;;;;;;15.80;43.54;99299.30;1630420;86;21258;-67
2022/05/04 07:34:43;;;;;;;;;;;;;;;15.76;42.05;99300.59;1655357;84;20181;-70
2022/05/04 07:37:11;;;;;;;;;;;;;;;15.78;44.66;99301.63;1672170;84;20147;-69
2022/05/04 07:42:28;;;;;;;;;;;;;;;16.10;41.82;99301.05;1698108;82;20667;-71
2022/05/04 07:45:11;;;;;;;;;;;;;;;16.20;42.08;99306.02;1666895;84;21296;-70
2022/05/04 07:47:52;;;;;;;;;;;;;;;16.27;41.98;99301.23;1683935;82;20172;-72
2022/05/04 07:50:22;;;;;;;;;;;;;;;16.45;43.95;99303.26;1674487;83;20202;-70
2022/05/04 07:52:52;;;;;;;;;;;;;;;16.76;44.35;99303.77;1666204;83;20157;-70
2022/05/04 07:55:23;;;;;;;;;;;;;;;17.13;44.05;99302.77;1680481;82;20177;-68
2022/05/04 07:57:54;;;;;;;;;;;;;;;17.44;41.14;99303.74;1668375;83;21380;-70
2022/05/04 08:06:00;;;;;;;;;;;;;;;18.36;38.94;99308.73;1674260;83;20160;-70
2022/05/04 08:08:31;;;;;;;;;;;;;;;18.46;39.85;99298.38;1673154;83;20195;-74
2022/05/04 08:10:58;;;;;;;;;;;;;;;18.68;38.74;99301.67;1673927;83;20142;-68
2022/05/04 08:13:26;;;;;;;;;;;;;;;18.66;37.29;99299.86;1675967;83;20092;-69
2022/05/04 08:15:56;;;;;;;;;;;;;;;18.23;37.36;99303.97;1675551;83;20103;-69
2022/05/04 08:18:27;;;;;;;;;;;;;;;17.65;37.20;99301.41;1663628;84;20171;-70
2022/05/04 08:20:56;;;;;;;;;;;;;;;17.08;38.06;99308.61;1664952;83;20164;-73
2022/05/04 08:23:27;;;;;;;;;;;;;;;16.65;38.95;99311.64;1674802;83;21155;-72
2022/05/04 08:25:56;;;;;;;;;;;;;;;16.37;39.99;99318.10;1679718;84;20168;-81
2022/05/04 08:28:30;;;;;;;;;;;;;;;16.27;40.59;99310.34;1693309;83;20181;-82
2022/05/04 08:30:53;;;;;;;;;;;;;;;16.30;40.66;99307.44;1689707;83;20161;-79
2022/05/04 08:33:25;;;;;;;;;;;;;;;16.54;40.41;99297.52;1669658;83;20461;-76
2022/05/04 08:35:56;;;;;;;;;;;;;;;16.68;39.03;99317.86;1693111;83;21238;-74
2022/05/04 08:38:25;;;;;;;;;;;;;;;16.56;38.77;99313.78;1689400;83;20089;-74
2022/05/04 08:40:54;;;;;;;;;;;;;;;16.33;40.23;99321.37;1666333;84;20494;-71
2022/05/04 08:43:24;;;;;;;;;;;;;;;16.16;40.63;99328.69;1686461;82;20495;-71
2022/05/04 08:45:53;;;;;;;;;;;;;;;16.03;39.88;99325.20;1692881;83;20145;-70
2022/05/04 08:48:22;;;;;;;;;;;;;;;15.92;39.75;99328.86;1696086;82;21153;-74
2022/05/04 08:50:54;;;;;;;;;;;;;;;15.85;40.02;99337.78;1671807;83;20195;-78
2022/05/04 08:53:18;;;;;;;;;;;;;;;15.77;40.38;99335.41;1676238;83;20168;-83
2022/05/04 08:55:45;;;;;;;;;;;;;;;15.75;41.41;99337.73;1684217;83;20430;-74
2022/05/04 08:58:15;;;;;;;;;;;;;;;15.82;41.27;99342.06;1672714;83;21041;-76
2022/05/04 09:00:41;;;;;;;;;;;;;;;15.89;41.83;99344.80;1665409;83;21258;-73
2022/05/04 09:03:07;;;;;;;;;;;;;;;15.93;39.67;99336.81;1664542;83;20499;-71
2022/05/04 09:05:40;;;;;;;;;;;;;;;15.97;40.86;99334.13;1671179;82;20172;-75
2022/05/04 09:08:13;;;;;;;;;;;;;;;16.09;41.25;99337.63;1685441;83;20195;-71
2022/05/04 09:10:44;;;;;;;;;;;;;;;16.27;41.12;99344.96;1679081;83;20167;-83
2022/05/04 09:13:14;;;;;;;;;;;;;;;16.51;41.02;99340.61;1666041;83;20969;-76
2022/05/04 09:15:41;;;;;;;;;;;;;;;16.71;39.84;99344.27;1677279;83;20157;-73
2022/05/04 09:18:13;;;;;;;;;;;;;;;16.82;38.67;99339.73;1661241;83;20240;-76
2022/05/04 09:20:58;;;;;;;;;;;;;;;16.94;39.75;99341.58;1698656;83;20740;-74
2022/05/04 09:23:29;;;;;;;;;;;;;;;17.13;38.66;99335.25;1666065;83;20239;-74
2022/05/04 09:26:00;;;;;;;;;;;;;;;17.34;39.75;99339.83;1666515;83;21258;-72
2022/05/04 09:28:29;;;;;;;;;;;;;;;17.42;38.17;99338.80;1663390;83;20079;-76
2022/05/04 09:31:01;;;;;;;;;;;;;;;17.35;37.26;99339.23;1665140;84;20155;-75
2022/05/04 09:33:29;;;;;;;;;;;;;;;17.08;38.13;99337.73;1682489;84;20446;-74
2022/05/04 09:35:58;;;;;;;;;;;;;;;16.81;37.97;99353.37;1666856;83;20144;-77
2022/05/04 09:46:58;;;;;;;;;;;;;;;16.26;39.32;99349.47;1678913;82;20140;-76
2022/05/04 09:49:29;;;;;;;;;;;;;;;16.26;38.39;99343.94;1656224;83;20160;-73
2022/05/04 09:51:56;;;;;;;;;;;;;;;16.22;38.90;99353.54;1661463;83;21890;-74
2022/05/04 09:54:25;;;;;;;;;;;;;;;16.22;39.45;99354.92;1676146;83;20194;-78
2022/05/04 09:57:00;;;;;;;;;;;;;;;16.18;37.60;99346.53;1677662;84;20208;-77
2022/05/04 09:59:30;;;;;;;;;;;;;;;16.08;38.49;99361.52;1671149;83;20178;-76
2022/05/04 10:01:58;;;;;;;;;;;;;;;15.95;38.23;99350.30;1674793;83;20186;-75
2022/05/04 10:04:25;;;;;;;;;;;;;;;15.90;38.97;99349.98;1675228;83;21270;-76
2022/05/04 10:06:53;;;;;;;;;;;;;;;16.00;40.31;99358.34;1667057;83;20148;-74
2022/05/04 10:09:22;;;;;;;;;;;;;;;16.13;39.46;99359.28;1665147;83;20442;-73
2022/05/04 10:11:56;;;;;;;;;;;;;;;16.28;39.42;99354.88;1666192;84;20195;-74
2022/05/04 10:14:17;;;;;;;;;;;;;;;16.47;39.29;99354.16;1674350;83;20144;-73
2022/05/04 10:17:07;;;;;;;;;;;;;;;16.67;39.69;99346.73;1667742;83;21194;-72
2022/05/04 10:19:54;;;;;;;;;;;;;;;16.86;39.47;99349.52;1667080;83;20396;-70
2022/05/04 10:22:23;;;;;;;;;;;;;;;17.11;38.09;99341.16;1664889;84;20147;-70
2022/05/04 10:24:51;;;;;;;;;;;;;;;17.58;38.55;99345.65;1672051;83;20932;-71
2022/05/04 10:27:21;;;;;;;;;;;;;;;17.87;37.96;99340.08;1683747;85;20172;-75
2022/05/04 10:30:48;;;;;;;;;;;;;;;17.89;36.84;99349.43;1683492;83;21157;-73
2022/05/04 10:32:31;;;;;;;;;;;;;;;17.69;35.84;99348.08;1685295;83;20163;-73
2022/05/04 10:35:08;;;;;;;;;;;;;;;17.47;36.77;99347.41;1658504;84;20154;-82
2022/05/04 10:37:36;;;;;;;;;;;;;;;17.30;37.17;99353.44;1666567;85;20302;-81
2022/05/04 10:40:06;;;;;;;;;;;;;;;17.10;36.67;99346.48;1652779;85;20422;-72
2022/05/04 10:42:58;;;;;;;;;;;;;;;17.00;36.46;99347.06;1674327;85;21134;-74
2022/05/04 10:45:30;;;;;;;;;;;;;;;16.91;36.80;99347.05;1688586;83;20154;-69
2022/05/04 10:48:20;;;;;;;;;;;;;;;16.87;37.19;99344.78;1684424;83;20169;-73
2022/05/04 10:50:51;;;;;;;;;;;;;;;16.89;37.56;99339.09;1682744;83;20102;-81
2022/05/04 10:53:22;;;;;;;;;;;;;;;16.90;37.67;99349.02;1687956;83;20436;-76
2022/05/04 10:56:02;;;;;;;;;;;;;;;16.97;36.45;99346.40;1664621;85;21170;-70
2022/05/04 10:58:42;;;;;;;;;;;;;;;17.01;35.53;99352.83;1686315;84;20096;-72
2022/05/04 11:01:24;;;;;;;;;;;;;;;16.95;34.58;99347.34;1682333;83;20126;-73
2022/05/04 11:03:57;;;;;;;;;;;;;;;16.84;34.86;99356.00;1685182;83;20483;-75
2022/05/04 11:06:32;;;;;;;;;;;;;;;16.71;35.07;99360.09;1662345;84;20179;-76
2022/05/04 11:09:00;;;;;;;;;;;;;;;16.65;35.34;99355.41;1669761;84;21140;-73
2022/05/04 11:11:27;;;;;;;;;;;;;;;16.68;34.12;99358.84;1657040;83;20145;-76
2022/05/04 11:13:53;;;;;;;;;;;;;;;16.73;33.68;99354.41;1679373;83;20238;-74
2022/05/04 11:16:21;;;;;;;;;;;;;;;16.78;33.72;99357.45;1662574;83;20238;-75
2022/05/04 11:18:48;;;;;;;;;;;;;;;16.81;32.38;99345.64;1664146;84;20509;-79
2022/05/04 11:21:15;;;;;;;;;;;;;;;16.77;33.76;99355.27;1687890;83;21110;-79
2022/05/04 11:23:46;;;;;;;;;;;;;;;16.78;32.78;99354.68;1691188;83;20671;-73
2022/05/04 11:26:20;;;;;;;;;;;;;;;16.84;33.10;99343.53;1682842;84;20489;-79
2022/05/04 11:28:47;;;;;;;;;;;;;;;16.97;33.83;99348.38;1684625;83;20444;-74
2022/05/04 11:31:13;;;;;;;;;;;;;;;17.14;34.31;99333.50;1686930;83;20459;-79
2022/05/04 11:33:41;;;;;;;;;;;;;;;17.24;34.92;99336.27;1690025;83;21131;-75
2022/05/04 11:36:08;;;;;;;;;;;;;;;17.31;34.06;99344.75;1686882;83;20557;-77
2022/05/04 11:38:36;;;;;;;;;;;;;;;17.37;34.23;99350.19;1686350;84;20146;-75
2022/05/04 11:41:02;;;;;;;;;;;;;;;17.32;34.42;99342.19;1683350;85;20139;-76
2022/05/04 11:43:33;;;;;;;;;;;;;;;17.32;34.52;99342.77;1676114;84;20813;-74
2022/05/04 11:46:09;;;;;;;;;;;;;;;17.35;34.90;99345.59;1685446;83;20589;-72
2022/05/04 11:48:37;;;;;;;;;;;;;;;17.39;34.71;99341.50;1685771;83;20136;-74
2022/05/04 11:51:07;;;;;;;;;;;;;;;17.30;34.61;99345.11;1687739;83;20124;-72
2022/05/04 11:53:36;;;;;;;;;;;;;;;17.23;33.33;99349.12;1689316;83;20640;-75
2022/05/04 11:56:04;;;;;;;;;;;;;;;17.19;33.28;99348.25;1659595;85;20173;-73
2022/05/04 11:58:31;;;;;;;;;;;;;;;17.19;33.90;99346.86;1688085;84;21613;-74
2022/05/04 12:00:58;;;;;;;;;;;;;;;17.24;32.30;99345.98;1687686;85;20112;-75
2022/05/04 12:03:25;;;;;;;;;;;;;;;17.28;33.71;99346.86;1684957;83;20420;-77
2022/05/04 12:05:53;;;;;;;;;;;;;;;17.45;32.03;99341.42;1687866;83;20199;-76
2022/05/04 12:08:20;;;;;;;;;;;;;;;17.67;32.31;99338.51;1684380;84;20441;-75
2022/05/04 12:10:48;;;;;;;;;;;;;;;17.83;31.59;99331.47;1680107;83;21185;-79
2022/05/04 12:13:17;;;;;;;;;;;;;;;17.91;31.28;99334.59;1658799;85;20258;-76
2022/05/04 12:15:44;;;;;;;;;;;;;;;17.96;31.71;99341.20;1626579;86;20155;-75
2022/05/04 12:18:11;;;;;;;;;;;;;;;18.10;31.66;99335.30;1638662;87;20517;-77
2022/05/04 12:20:38;;;;;;;;;;;;;;;18.32;31.22;99332.88;1663780;85;20706;-80
2022/05/04 12:23:04;;;;;;;;;;;;;;;18.27;30.11;99340.14;1666729;85;21820;-76
2022/05/04 12:25:31;;;;;;;;;;;;;;;18.08;31.26;99347.95;1658378;86;20222;-73
2022/05/04 12:27:59;;;;;;;;;;;;;;;17.95;32.24;99343.17;1644513;86;20147;-75
2022/05/04 12:33:14;;;;;;;;;;;;;;;17.64;31.92;99343.38;1675446;83;20176;-75
2022/05/04 12:35:44;;;;;;;;;;;;;;;17.23;31.44;99335.25;1672337;83;22094;-73
2022/05/04 12:38:15;;;;;;;;;;;;;;;16.91;32.35;99342.30;1698500;82;20147;-75
2022/05/04 12:40:42;;;;;;;;;;;;;;;16.73;32.59;99348.06;1690422;83;20152;-75
2022/05/04 12:43:09;;;;;;;;;;;;;;;16.65;34.15;99354.02;1694345;82;20088;-84
2022/05/04 12:45:36;;;;;;;;;;;;;;;16.65;34.12;99355.98;1661545;85;20201;-84
2022/05/04 12:48:08;;;;;;;;;;;;;;;16.69;33.99;99355.48;1634200;86;21135;-86
2022/05/04 12:50:34;;;;;;;;;;;;;;;16.71;33.52;99355.94;1661315;84;20103;-82
2022/05/04 12:53:01;;;;;;;;;;;;;;;16.63;32.96;99345.23;1631498;87;20229;-81
2022/05/04 12:58:17;;;;;;;;;;;;;;;16.75;33.94;99354.05;1613169;86;20149;-81
2022/05/04 13:00:42;;;;;;;;;;;;;;;16.92;33.94;99344.49;1622785;86;21138;-83
2022/05/04 13:03:11;;;;;;;;;;;;;;;17.05;32.33;99344.00;1669707;84;20259;-82
2022/05/04 13:05:41;;;;;;;;;;;;;;;17.08;32.24;99354.37;1670113;85;20192;-78
2022/05/04 13:08:08;;;;;;;;;;;;;;;17.08;31.20;99346.63;1656667;86;20200;-81
2022/05/04 13:10:40;;;;;;;;;;;;;;;17.02;31.46;99349.47;1631022;86;20152;-81
2022/05/04 13:13:05;;;;;;;;;;;;;;;17.03;32.27;99349.11;1613854;86;21183;-85
2022/05/04 13:15:33;;;;;;;;;;;;;;;17.24;32.16;99343.80;1667074;84;20117;-83
2022/05/04 13:18:00;;;;;;;;;;;;;;;17.79;32.30;99350.25;1659888;84;20211;-81
2022/05/04 13:20:28;;;;;;;;;;;;;;;18.41;31.74;99327.28;1651290;85;20187;-80
2022/05/04 13:22:54;;;;;;;;;;;;;;;18.65;30.65;99338.57;1622532;86;20476;-84
2022/05/04 13:25:21;;;;;;;;;;;;;;;18.87;29.94;99342.47;1654764;85;21106;-80
2022/05/04 13:27:48;;;;;;;;;;;;;;;18.88;30.67;99348.24;1627739;85;20537;-79
2022/05/04 13:30:15;;;;;;;;;;;;;;;18.68;29.80;99349.53;1653263;85;20160;-85
2022/05/04 13:32:42;;;;;;;;;;;;;;;18.41;30.46;99349.52;1655336;85;20426;-76